sensor_id;sensor_type;location;lat;lon;timestamp;P1;durP1;ratioP1;P2;durP2;ratioP2
9218;SDS011;4644;48.858;9.184;2022-11-20T00:00:49;23.33;;;10.33;;
9218;SDS011;4644;48.858;9.184;2022-11-20T00:03:18;17.87;;;9.00;;
9218;SDS011;4644;48.858;9.184;2022-11-20T00:05:45;17.13;;;8.30;;
9218;SDS011;4644;48.858;9.184;2022-11-20T00:08:12;19.73;;;9.30;;
9218;SDS011;4644;48.858;9.184;2022-11-20T00:10:40;15.13;;;8.83;;
9218;SDS011;4644;48.858;9.184;2022-11-20T00:13:07;13.73;;;7.80;;
9218;SDS011;4644;48.858;9.184;2022-11-20T00:15:34;16.73;;;9.03;;
9218;SDS011;4644;48.858;9.184;2022-11-20T00:18:01;15.83;;;9.60;;
9218;SDS011;4644;48.858;9.184;2022-11-20T00:20:32;17.90;;;10.00;;
9218;SDS011;4644;48.858;9.184;2022-11-20T00:22:59;17.47;;;8.97;;
9218;SDS011;4644;48.858;9.184;2022-11-20T00:25:28;29.77;;;10.40;;
9218;SDS011;4644;48.858;9.184;2022-11-20T00:27:55;22.67;;;10.23;;
9218;SDS011;4644;48.858;9.184;2022-11-20T00:30:22;19.80;;;10.53;;
9218;SDS011;4644;48.858;9.184;2022-11-20T00:32:52;15.17;;;9.83;;
9218;SDS011;4644;48.858;9.184;2022-11-20T00:35:19;18.77;;;9.67;;
9218;SDS011;4644;48.858;9.184;2022-11-20T00:37:51;12.70;;;9.83;;
9218;SDS011;4644;48.858;9.184;2022-11-20T00:40:18;16.27;;;9.73;;
9218;SDS011;4644;48.858;9.184;2022-11-20T00:42:45;15.80;;;9.70;;
9218;SDS011;4644;48.858;9.184;2022-11-20T00:45:12;19.43;;;10.27;;
9218;SDS011;4644;48.858;9.184;2022-11-20T00:47:41;18.10;;;9.33;;
9218;SDS011;4644;48.858;9.184;2022-11-20T00:50:08;40.10;;;11.33;;
9218;SDS011;4644;48.858;9.184;2022-11-20T00:52:35;31.33;;;10.40;;
9218;SDS011;4644;48.858;9.184;2022-11-20T00:55:07;17.30;;;10.13;;
9218;SDS011;4644;48.858;9.184;2022-11-20T00:57:34;20.90;;;10.27;;
9218;SDS011;4644;48.858;9.184;2022-11-20T01:00:06;20.30;;;10.57;;
9218;SDS011;4644;48.858;9.184;2022-11-20T01:02:34;11.90;;;9.17;;
9218;SDS011;4644;48.858;9.184;2022-11-20T01:05:01;13.80;;;9.07;;
9218;SDS011;4644;48.858;9.184;2022-11-20T01:07:28;13.60;;;8.93;;
9218;SDS011;4644;48.858;9.184;2022-11-20T01:09:55;12.33;;;8.43;;
9218;SDS011;4644;48.858;9.184;2022-11-20T01:12:23;11.73;;;8.60;;
9218;SDS011;4644;48.858;9.184;2022-11-20T01:14:50;15.30;;;9.47;;
9218;SDS011;4644;48.858;9.184;2022-11-20T01:17:17;12.47;;;9.17;;
9218;SDS011;4644;48.858;9.184;2022-11-20T01:19:44;14.27;;;8.87;;
9218;SDS011;4644;48.858;9.184;2022-11-20T01:22:14;17.00;;;9.03;;
9218;SDS011;4644;48.858;9.184;2022-11-20T01:24:41;12.57;;;8.53;;
9218;SDS011;4644;48.858;9.184;2022-11-20T01:27:08;12.60;;;9.17;;
9218;SDS011;4644;48.858;9.184;2022-11-20T01:29:36;13.33;;;10.07;;
9218;SDS011;4644;48.858;9.184;2022-11-20T01:32:04;13.80;;;8.97;;
9218;SDS011;4644;48.858;9.184;2022-11-20T01:34:31;13.77;;;9.57;;
9218;SDS011;4644;48.858;9.184;2022-11-20T01:36:58;13.20;;;8.60;;
9218;SDS011;4644;48.858;9.184;2022-11-20T01:39:25;15.10;;;9.53;;
9218;SDS011;4644;48.858;9.184;2022-11-20T01:41:53;13.60;;;9.53;;
9218;SDS011;4644;48.858;9.184;2022-11-20T01:44:47;14.33;;;9.50;;
9218;SDS011;4644;48.858;9.184;2022-11-20T01:47:17;42.43;;;10.13;;
9218;SDS011;4644;48.858;9.184;2022-11-20T01:49:50;26.60;;;9.93;;
9218;SDS011;4644;48.858;9.184;2022-11-20T01:52:23;24.30;;;9.70;;
9218;SDS011;4644;48.858;9.184;2022-11-20T01:54:53;17.57;;;8.70;;
9218;SDS011;4644;48.858;9.184;2022-11-20T01:57:24;21.43;;;9.57;;
9218;SDS011;4644;48.858;9.184;2022-11-20T01:59:57;23.40;;;9.93;;
9218;SDS011;4644;48.858;9.184;2022-11-20T02:02:26;17.57;;;9.37;;
9218;SDS011;4644;48.858;9.184;2022-11-20T02:04:54;14.90;;;9.17;;
9218;SDS011;4644;48.858;9.184;2022-11-20T02:07:25;12.03;;;8.63;;
9218;SDS011;4644;48.858;9.184;2022-11-20T02:09:52;23.30;;;10.67;;
9218;SDS011;4644;48.858;9.184;2022-11-20T02:12:19;15.23;;;9.00;;
9218;SDS011;4644;48.858;9.184;2022-11-20T02:15:06;13.43;;;9.77;;
9218;SDS011;4644;48.858;9.184;2022-11-20T02:17:33;12.23;;;8.83;;
9218;SDS011;4644;48.858;9.184;2022-11-20T02:20:00;11.37;;;8.63;;
9218;SDS011;4644;48.858;9.184;2022-11-20T02:22:28;12.37;;;8.60;;
9218;SDS011;4644;48.858;9.184;2022-11-20T02:25:01;11.37;;;8.40;;
9218;SDS011;4644;48.858;9.184;2022-11-20T02:27:30;10.97;;;8.63;;
9218;SDS011;4644;48.858;9.184;2022-11-20T02:29:57;10.57;;;7.97;;
9218;SDS011;4644;48.858;9.184;2022-11-20T02:32:28;9.83;;;7.83;;
9218;SDS011;4644;48.858;9.184;2022-11-20T02:34:57;11.33;;;7.90;;
9218;SDS011;4644;48.858;9.184;2022-11-20T02:37:26;10.10;;;8.00;;
9218;SDS011;4644;48.858;9.184;2022-11-20T02:39:58;10.63;;;8.33;;
9218;SDS011;4644;48.858;9.184;2022-11-20T02:42:27;11.40;;;8.83;;
9218;SDS011;4644;48.858;9.184;2022-11-20T02:44:54;10.57;;;7.50;;
9218;SDS011;4644;48.858;9.184;2022-11-20T02:47:21;9.50;;;7.40;;
9218;SDS011;4644;48.858;9.184;2022-11-20T02:49:48;8.53;;;6.73;;
9218;SDS011;4644;48.858;9.184;2022-11-20T02:52:15;8.17;;;6.97;;
9218;SDS011;4644;48.858;9.184;2022-11-20T02:54:42;8.67;;;6.73;;
9218;SDS011;4644;48.858;9.184;2022-11-20T02:57:10;7.73;;;6.30;;
9218;SDS011;4644;48.858;9.184;2022-11-20T02:59:37;8.57;;;5.83;;
9218;SDS011;4644;48.858;9.184;2022-11-20T03:02:04;6.13;;;5.17;;
9218;SDS011;4644;48.858;9.184;2022-11-20T03:04:31;7.93;;;5.40;;
9218;SDS011;4644;48.858;9.184;2022-11-20T03:06:58;6.50;;;5.10;;
9218;SDS011;4644;48.858;9.184;2022-11-20T03:09:25;6.37;;;4.53;;
9218;SDS011;4644;48.858;9.184;2022-11-20T03:11:52;4.77;;;4.17;;
9218;SDS011;4644;48.858;9.184;2022-11-20T03:14:21;5.00;;;4.07;;
9218;SDS011;4644;48.858;9.184;2022-11-20T03:16:48;5.10;;;3.90;;
9218;SDS011;4644;48.858;9.184;2022-11-20T03:19:15;4.10;;;3.60;;
9218;SDS011;4644;48.858;9.184;2022-11-20T03:21:42;4.73;;;3.90;;
9218;SDS011;4644;48.858;9.184;2022-11-20T03:24:09;4.73;;;3.60;;
9218;SDS011;4644;48.858;9.184;2022-11-20T03:26:36;3.97;;;3.57;;
9218;SDS011;4644;48.858;9.184;2022-11-20T03:29:03;4.47;;;3.50;;
9218;SDS011;4644;48.858;9.184;2022-11-20T03:31:32;3.83;;;3.53;;
9218;SDS011;4644;48.858;9.184;2022-11-20T03:34:01;4.53;;;4.03;;
9218;SDS011;4644;48.858;9.184;2022-11-20T03:36:29;4.83;;;3.47;;
9218;SDS011;4644;48.858;9.184;2022-11-20T03:38:56;4.10;;;3.70;;
9218;SDS011;4644;48.858;9.184;2022-11-20T03:41:24;5.07;;;3.30;;
9218;SDS011;4644;48.858;9.184;2022-11-20T03:43:53;3.73;;;3.10;;
9218;SDS011;4644;48.858;9.184;2022-11-20T03:46:22;3.10;;;2.80;;
9218;SDS011;4644;48.858;9.184;2022-11-20T03:48:51;3.43;;;3.13;;
9218;SDS011;4644;48.858;9.184;2022-11-20T03:51:19;3.90;;;2.70;;
9218;SDS011;4644;48.858;9.184;2022-11-20T03:53:47;4.93;;;3.37;;
9218;SDS011;4644;48.858;9.184;2022-11-20T03:56:16;5.10;;;3.13;;
9218;SDS011;4644;48.858;9.184;2022-11-20T03:58:48;4.40;;;3.27;;
9218;SDS011;4644;48.858;9.184;2022-11-20T04:01:16;5.33;;;2.80;;
9218;SDS011;4644;48.858;9.184;2022-11-20T04:03:47;3.17;;;2.87;;
9218;SDS011;4644;48.858;9.184;2022-11-20T04:06:16;4.10;;;3.20;;
9218;SDS011;4644;48.858;9.184;2022-11-20T04:08:45;3.13;;;2.77;;
9218;SDS011;4644;48.858;9.184;2022-11-20T04:11:12;3.07;;;2.63;;
9218;SDS011;4644;48.858;9.184;2022-11-20T04:13:41;2.80;;;2.50;;
9218;SDS011;4644;48.858;9.184;2022-11-20T04:16:12;3.47;;;3.13;;
9218;SDS011;4644;48.858;9.184;2022-11-20T04:18:39;3.90;;;3.07;;
9218;SDS011;4644;48.858;9.184;2022-11-20T04:21:06;3.70;;;2.73;;
9218;SDS011;4644;48.858;9.184;2022-11-20T04:23:36;4.07;;;2.87;;
9218;SDS011;4644;48.858;9.184;2022-11-20T04:26:03;4.83;;;3.40;;
9218;SDS011;4644;48.858;9.184;2022-11-20T04:28:31;4.83;;;3.40;;
9218;SDS011;4644;48.858;9.184;2022-11-20T04:31:02;3.33;;;3.00;;
9218;SDS011;4644;48.858;9.184;2022-11-20T04:33:30;5.43;;;3.13;;
9218;SDS011;4644;48.858;9.184;2022-11-20T04:35:59;3.87;;;3.47;;
9218;SDS011;4644;48.858;9.184;2022-11-20T04:38:28;3.53;;;3.00;;
9218;SDS011;4644;48.858;9.184;2022-11-20T04:40:59;5.70;;;2.97;;
9218;SDS011;4644;48.858;9.184;2022-11-20T04:43:28;3.60;;;3.10;;
9218;SDS011;4644;48.858;9.184;2022-11-20T04:45:55;4.07;;;3.20;;
9218;SDS011;4644;48.858;9.184;2022-11-20T04:48:24;4.53;;;2.87;;
9218;SDS011;4644;48.858;9.184;2022-11-20T04:50:51;4.00;;;3.33;;
9218;SDS011;4644;48.858;9.184;2022-11-20T04:53:19;4.80;;;3.10;;
9218;SDS011;4644;48.858;9.184;2022-11-20T04:55:47;3.67;;;3.27;;
9218;SDS011;4644;48.858;9.184;2022-11-20T04:58:15;3.00;;;2.70;;
9218;SDS011;4644;48.858;9.184;2022-11-20T05:00:42;3.47;;;3.03;;
9218;SDS011;4644;48.858;9.184;2022-11-20T05:03:09;3.40;;;3.10;;
9218;SDS011;4644;48.858;9.184;2022-11-20T05:05:36;3.90;;;3.30;;
9218;SDS011;4644;48.858;9.184;2022-11-20T05:08:03;3.23;;;2.93;;
9218;SDS011;4644;48.858;9.184;2022-11-20T05:10:30;4.30;;;3.90;;
9218;SDS011;4644;48.858;9.184;2022-11-20T05:12:57;3.87;;;2.93;;
9218;SDS011;4644;48.858;9.184;2022-11-20T05:15:26;3.47;;;3.17;;
9218;SDS011;4644;48.858;9.184;2022-11-20T05:17:53;3.10;;;2.80;;
9218;SDS011;4644;48.858;9.184;2022-11-20T05:20:21;3.47;;;3.13;;
9218;SDS011;4644;48.858;9.184;2022-11-20T05:22:48;4.30;;;3.40;;
9218;SDS011;4644;48.858;9.184;2022-11-20T05:25:15;5.20;;;3.83;;
9218;SDS011;4644;48.858;9.184;2022-11-20T05:27:42;3.30;;;3.07;;
9218;SDS011;4644;48.858;9.184;2022-11-20T05:30:09;5.50;;;3.43;;
9218;SDS011;4644;48.858;9.184;2022-11-20T05:32:38;4.53;;;3.17;;
9218;SDS011;4644;48.858;9.184;2022-11-20T05:35:08;3.37;;;3.07;;
9218;SDS011;4644;48.858;9.184;2022-11-20T05:37:35;4.20;;;3.13;;
9218;SDS011;4644;48.858;9.184;2022-11-20T05:40:02;3.93;;;3.13;;
9218;SDS011;4644;48.858;9.184;2022-11-20T05:42:30;3.17;;;2.97;;
9218;SDS011;4644;48.858;9.184;2022-11-20T05:44:57;3.93;;;3.30;;
9218;SDS011;4644;48.858;9.184;2022-11-20T05:47:24;3.37;;;2.97;;
9218;SDS011;4644;48.858;9.184;2022-11-20T05:49:53;3.40;;;3.10;;
9218;SDS011;4644;48.858;9.184;2022-11-20T05:52:20;3.40;;;3.10;;
9218;SDS011;4644;48.858;9.184;2022-11-20T05:54:48;3.87;;;2.97;;
9218;SDS011;4644;48.858;9.184;2022-11-20T05:57:15;3.00;;;2.73;;
9218;SDS011;4644;48.858;9.184;2022-11-20T05:59:42;3.63;;;2.93;;
9218;SDS011;4644;48.858;9.184;2022-11-20T06:02:09;4.03;;;3.10;;
9218;SDS011;4644;48.858;9.184;2022-11-20T06:04:36;3.40;;;3.10;;
9218;SDS011;4644;48.858;9.184;2022-11-20T06:07:05;3.43;;;3.13;;
9218;SDS011;4644;48.858;9.184;2022-11-20T06:09:33;5.73;;;4.00;;
9218;SDS011;4644;48.858;9.184;2022-11-20T06:12:00;5.77;;;3.70;;
9218;SDS011;4644;48.858;9.184;2022-11-20T06:14:27;5.43;;;3.87;;
9218;SDS011;4644;48.858;9.184;2022-11-20T06:16:54;4.27;;;3.30;;
9218;SDS011;4644;48.858;9.184;2022-11-20T06:19:21;7.00;;;3.83;;
9218;SDS011;4644;48.858;9.184;2022-11-20T06:21:51;5.20;;;3.60;;
9218;SDS011;4644;48.858;9.184;2022-11-20T06:24:19;5.23;;;3.97;;
9218;SDS011;4644;48.858;9.184;2022-11-20T06:26:46;4.00;;;3.40;;
9218;SDS011;4644;48.858;9.184;2022-11-20T06:29:13;4.70;;;3.70;;
9218;SDS011;4644;48.858;9.184;2022-11-20T06:31:40;5.17;;;3.50;;
9218;SDS011;4644;48.858;9.184;2022-11-20T06:34:07;3.83;;;3.43;;
9218;SDS011;4644;48.858;9.184;2022-11-20T06:36:34;3.50;;;3.20;;
9218;SDS011;4644;48.858;9.184;2022-11-20T06:39:03;3.03;;;2.73;;
9218;SDS011;4644;48.858;9.184;2022-11-20T06:41:31;3.87;;;3.47;;
9218;SDS011;4644;48.858;9.184;2022-11-20T06:43:58;3.67;;;3.33;;
9218;SDS011;4644;48.858;9.184;2022-11-20T06:46:25;4.47;;;4.00;;
9218;SDS011;4644;48.858;9.184;2022-11-20T06:48:52;6.10;;;4.63;;
9218;SDS011;4644;48.858;9.184;2022-11-20T06:51:19;8.50;;;5.53;;
9218;SDS011;4644;48.858;9.184;2022-11-20T06:53:48;9.57;;;5.87;;
9218;SDS011;4644;48.858;9.184;2022-11-20T06:56:15;9.33;;;5.50;;
9218;SDS011;4644;48.858;9.184;2022-11-20T06:58:43;4.97;;;3.63;;
9218;SDS011;4644;48.858;9.184;2022-11-20T07:01:12;3.57;;;2.73;;
9218;SDS011;4644;48.858;9.184;2022-11-20T07:03:40;2.30;;;2.10;;
9218;SDS011;4644;48.858;9.184;2022-11-20T07:06:07;2.00;;;1.80;;
9218;SDS011;4644;48.858;9.184;2022-11-20T07:08:34;2.00;;;1.80;;
9218;SDS011;4644;48.858;9.184;2022-11-20T07:11:02;2.10;;;1.90;;
9218;SDS011;4644;48.858;9.184;2022-11-20T07:13:31;2.23;;;1.93;;
9218;SDS011;4644;48.858;9.184;2022-11-20T07:16:00;3.30;;;2.70;;
9218;SDS011;4644;48.858;9.184;2022-11-20T07:18:28;2.00;;;1.60;;
9218;SDS011;4644;48.858;9.184;2022-11-20T07:20:55;1.87;;;1.77;;
9218;SDS011;4644;48.858;9.184;2022-11-20T07:23:22;2.30;;;2.10;;
9218;SDS011;4644;48.858;9.184;2022-11-20T07:25:49;2.00;;;1.63;;
9218;SDS011;4644;48.858;9.184;2022-11-20T07:28:16;3.00;;;1.80;;
9218;SDS011;4644;48.858;9.184;2022-11-20T07:30:49;1.87;;;1.50;;
9218;SDS011;4644;48.858;9.184;2022-11-20T07:33:18;2.23;;;1.70;;
9218;SDS011;4644;48.858;9.184;2022-11-20T07:35:45;3.83;;;1.90;;
9218;SDS011;4644;48.858;9.184;2022-11-20T07:38:12;2.10;;;1.70;;
9218;SDS011;4644;48.858;9.184;2022-11-20T07:40:39;1.60;;;1.50;;
9218;SDS011;4644;48.858;9.184;2022-11-20T07:43:06;3.23;;;1.73;;
9218;SDS011;4644;48.858;9.184;2022-11-20T07:45:33;1.60;;;1.50;;
9218;SDS011;4644;48.858;9.184;2022-11-20T07:48:00;1.60;;;1.50;;
9218;SDS011;4644;48.858;9.184;2022-11-20T07:50:28;1.77;;;1.67;;
9218;SDS011;4644;48.858;9.184;2022-11-20T07:53:00;1.97;;;1.80;;
9218;SDS011;4644;48.858;9.184;2022-11-20T07:55:28;4.50;;;1.80;;
9218;SDS011;4644;48.858;9.184;2022-11-20T07:57:55;1.70;;;1.60;;
9218;SDS011;4644;48.858;9.184;2022-11-20T08:00:23;1.80;;;1.70;;
9218;SDS011;4644;48.858;9.184;2022-11-20T08:02:51;1.57;;;1.47;;
9218;SDS011;4644;48.858;9.184;2022-11-20T08:05:21;2.17;;;2.00;;
9218;SDS011;4644;48.858;9.184;2022-11-20T08:07:51;2.20;;;1.80;;
9218;SDS011;4644;48.858;9.184;2022-11-20T08:10:18;2.70;;;1.70;;
9218;SDS011;4644;48.858;9.184;2022-11-20T08:12:46;1.87;;;1.77;;
9218;SDS011;4644;48.858;9.184;2022-11-20T08:15:31;2.83;;;2.50;;
9218;SDS011;4644;48.858;9.184;2022-11-20T08:17:59;2.23;;;2.03;;
9218;SDS011;4644;48.858;9.184;2022-11-20T08:20:27;2.00;;;1.80;;
9218;SDS011;4644;48.858;9.184;2022-11-20T08:23:01;2.50;;;2.23;;
9218;SDS011;4644;48.858;9.184;2022-11-20T08:25:30;2.33;;;2.13;;
9218;SDS011;4644;48.858;9.184;2022-11-20T08:27:58;2.10;;;1.90;;
9218;SDS011;4644;48.858;9.184;2022-11-20T08:30:26;2.23;;;1.90;;
9218;SDS011;4644;48.858;9.184;2022-11-20T08:33:00;1.60;;;1.50;;
9218;SDS011;4644;48.858;9.184;2022-11-20T08:35:28;1.93;;;1.73;;
9218;SDS011;4644;48.858;9.184;2022-11-20T08:38:01;3.43;;;1.60;;
9218;SDS011;4644;48.858;9.184;2022-11-20T08:40:32;2.57;;;1.40;;
9218;SDS011;4644;48.858;9.184;2022-11-20T08:42:59;1.57;;;1.47;;
9218;SDS011;4644;48.858;9.184;2022-11-20T08:45:27;1.87;;;1.50;;
9218;SDS011;4644;48.858;9.184;2022-11-20T08:47:59;1.30;;;1.20;;
9218;SDS011;4644;48.858;9.184;2022-11-20T08:50:30;1.10;;;1.10;;
9218;SDS011;4644;48.858;9.184;2022-11-20T08:53:03;2.13;;;1.10;;
9218;SDS011;4644;48.858;9.184;2022-11-20T08:55:30;0.90;;;0.90;;
9218;SDS011;4644;48.858;9.184;2022-11-20T08:57:57;1.17;;;1.13;;
9218;SDS011;4644;48.858;9.184;2022-11-20T09:00:25;1.30;;;1.20;;
9218;SDS011;4644;48.858;9.184;2022-11-20T09:02:54;1.53;;;1.37;;
9218;SDS011;4644;48.858;9.184;2022-11-20T09:05:23;1.17;;;1.00;;
9218;SDS011;4644;48.858;9.184;2022-11-20T09:07:51;1.10;;;1.10;;
9218;SDS011;4644;48.858;9.184;2022-11-20T09:10:26;1.13;;;1.00;;
9218;SDS011;4644;48.858;9.184;2022-11-20T09:12:54;1.00;;;1.00;;
9218;SDS011;4644;48.858;9.184;2022-11-20T09:15:24;1.10;;;1.00;;
9218;SDS011;4644;48.858;9.184;2022-11-20T09:17:56;1.20;;;1.10;;
9218;SDS011;4644;48.858;9.184;2022-11-20T09:20:28;1.13;;;1.00;;
9218;SDS011;4644;48.858;9.184;2022-11-20T09:22:58;0.90;;;0.90;;
9218;SDS011;4644;48.858;9.184;2022-11-20T09:25:29;1.13;;;0.80;;
9218;SDS011;4644;48.858;9.184;2022-11-20T09:27:58;0.87;;;0.87;;
9218;SDS011;4644;48.858;9.184;2022-11-20T09:30:28;3.13;;;1.00;;
9218;SDS011;4644;48.858;9.184;2022-11-20T09:32:56;1.73;;;0.80;;
9218;SDS011;4644;48.858;9.184;2022-11-20T09:35:23;0.97;;;0.97;;
9218;SDS011;4644;48.858;9.184;2022-11-20T09:37:50;0.87;;;0.87;;
9218;SDS011;4644;48.858;9.184;2022-11-20T09:40:19;0.80;;;0.80;;
9218;SDS011;4644;48.858;9.184;2022-11-20T09:42:50;0.93;;;0.80;;
9218;SDS011;4644;48.858;9.184;2022-11-20T09:45:23;0.93;;;0.93;;
9218;SDS011;4644;48.858;9.184;2022-11-20T09:48:00;0.90;;;0.90;;
9218;SDS011;4644;48.858;9.184;2022-11-20T09:50:35;1.00;;;0.90;;
9218;SDS011;4644;48.858;9.184;2022-11-20T09:53:10;0.90;;;0.90;;
9218;SDS011;4644;48.858;9.184;2022-11-20T09:55:42;1.40;;;0.80;;
9218;SDS011;4644;48.858;9.184;2022-11-20T09:58:16;0.90;;;0.90;;
9218;SDS011;4644;48.858;9.184;2022-11-20T10:00:54;1.80;;;1.27;;
9218;SDS011;4644;48.858;9.184;2022-11-20T10:03:30;1.37;;;1.20;;
9218;SDS011;4644;48.858;9.184;2022-11-20T10:06:09;1.47;;;1.20;;
9218;SDS011;4644;48.858;9.184;2022-11-20T10:08:41;1.10;;;1.10;;
9218;SDS011;4644;48.858;9.184;2022-11-20T10:11:13;1.30;;;1.20;;
9218;SDS011;4644;48.858;9.184;2022-11-20T10:13:48;1.20;;;1.10;;
9218;SDS011;4644;48.858;9.184;2022-11-20T10:16:26;1.67;;;1.27;;
9218;SDS011;4644;48.858;9.184;2022-11-20T10:19:06;1.20;;;1.10;;
9218;SDS011;4644;48.858;9.184;2022-11-20T10:21:44;1.30;;;1.20;;
9218;SDS011;4644;48.858;9.184;2022-11-20T10:27:18;1.20;;;1.10;;
9218;SDS011;4644;48.858;9.184;2022-11-20T10:30:12;1.90;;;1.50;;
9218;SDS011;4644;48.858;9.184;2022-11-20T10:32:42;1.10;;;1.10;;
9218;SDS011;4644;48.858;9.184;2022-11-20T10:35:15;1.33;;;1.23;;
9218;SDS011;4644;48.858;9.184;2022-11-20T10:37:49;1.67;;;1.30;;
9218;SDS011;4644;48.858;9.184;2022-11-20T10:40:25;1.40;;;1.30;;
9218;SDS011;4644;48.858;9.184;2022-11-20T10:43:01;1.30;;;1.20;;
9218;SDS011;4644;48.858;9.184;2022-11-20T10:45:35;1.33;;;1.30;;
9218;SDS011;4644;48.858;9.184;2022-11-20T10:48:10;0.90;;;0.90;;
9218;SDS011;4644;48.858;9.184;2022-11-20T10:50:44;0.83;;;0.83;;
9218;SDS011;4644;48.858;9.184;2022-11-20T10:53:27;2.93;;;1.30;;
9218;SDS011;4644;48.858;9.184;2022-11-20T10:56:05;1.57;;;1.47;;
9218;SDS011;4644;48.858;9.184;2022-11-20T10:58:39;1.33;;;1.23;;
9218;SDS011;4644;48.858;9.184;2022-11-20T11:01:16;1.53;;;1.37;;
9218;SDS011;4644;48.858;9.184;2022-11-20T11:03:49;1.50;;;1.40;;
9218;SDS011;4644;48.858;9.184;2022-11-20T11:06:22;1.57;;;1.47;;
9218;SDS011;4644;48.858;9.184;2022-11-20T11:09:09;1.97;;;1.53;;
9218;SDS011;4644;48.858;9.184;2022-11-20T11:11:39;1.73;;;1.63;;
9218;SDS011;4644;48.858;9.184;2022-11-20T11:14:07;3.53;;;1.87;;
9218;SDS011;4644;48.858;9.184;2022-11-20T11:16:40;2.17;;;2.03;;
9218;SDS011;4644;48.858;9.184;2022-11-20T11:19:16;2.10;;;1.90;;
9218;SDS011;4644;48.858;9.184;2022-11-20T11:21:45;1.80;;;1.70;;
9218;SDS011;4644;48.858;9.184;2022-11-20T11:24:19;2.07;;;1.87;;
9218;SDS011;4644;48.858;9.184;2022-11-20T11:26:52;3.50;;;2.17;;
9218;SDS011;4644;48.858;9.184;2022-11-20T11:29:22;2.07;;;1.97;;
9218;SDS011;4644;48.858;9.184;2022-11-20T11:32:02;2.20;;;1.83;;
9218;SDS011;4644;48.858;9.184;2022-11-20T11:34:30;2.13;;;1.93;;
9218;SDS011;4644;48.858;9.184;2022-11-20T11:36:58;1.60;;;1.50;;
9218;SDS011;4644;48.858;9.184;2022-11-20T11:39:28;3.00;;;1.97;;
9218;SDS011;4644;48.858;9.184;2022-11-20T11:41:57;2.97;;;2.50;;
9218;SDS011;4644;48.858;9.184;2022-11-20T11:44:27;2.13;;;1.90;;
9218;SDS011;4644;48.858;9.184;2022-11-20T11:47:18;2.40;;;2.20;;
9218;SDS011;4644;48.858;9.184;2022-11-20T11:49:48;2.13;;;1.70;;
9218;SDS011;4644;48.858;9.184;2022-11-20T11:52:26;1.80;;;1.57;;
9218;SDS011;4644;48.858;9.184;2022-11-20T11:54:55;1.97;;;1.50;;
9218;SDS011;4644;48.858;9.184;2022-11-20T11:57:28;1.50;;;1.40;;
9218;SDS011;4644;48.858;9.184;2022-11-20T12:00:03;1.67;;;1.30;;
9218;SDS011;4644;48.858;9.184;2022-11-20T12:02:36;2.33;;;1.80;;
9218;SDS011;4644;48.858;9.184;2022-11-20T12:05:12;3.87;;;1.70;;
9218;SDS011;4644;48.858;9.184;2022-11-20T12:07:45;2.40;;;1.40;;
9218;SDS011;4644;48.858;9.184;2022-11-20T12:10:15;1.67;;;1.10;;
9218;SDS011;4644;48.858;9.184;2022-11-20T12:12:48;1.73;;;1.07;;
9218;SDS011;4644;48.858;9.184;2022-11-20T12:15:26;2.17;;;1.20;;
9218;SDS011;4644;48.858;9.184;2022-11-20T12:17:58;1.00;;;1.00;;
9218;SDS011;4644;48.858;9.184;2022-11-20T12:20:27;1.90;;;1.20;;
9218;SDS011;4644;48.858;9.184;2022-11-20T12:22:59;1.77;;;1.17;;
9218;SDS011;4644;48.858;9.184;2022-11-20T12:25:34;1.13;;;1.10;;
9218;SDS011;4644;48.858;9.184;2022-11-20T12:28:06;1.47;;;1.30;;
9218;SDS011;4644;48.858;9.184;2022-11-20T12:30:48;1.10;;;1.10;;
9218;SDS011;4644;48.858;9.184;2022-11-20T12:33:46;1.23;;;1.13;;
9218;SDS011;4644;48.858;9.184;2022-11-20T12:36:24;1.97;;;1.00;;
9218;SDS011;4644;48.858;9.184;2022-11-20T12:39:02;1.73;;;1.10;;
9218;SDS011;4644;48.858;9.184;2022-11-20T12:41:43;1.03;;;0.80;;
9218;SDS011;4644;48.858;9.184;2022-11-20T12:48:04;2.57;;;1.07;;
9218;SDS011;4644;48.858;9.184;2022-11-20T12:50:50;0.70;;;0.70;;
9218;SDS011;4644;48.858;9.184;2022-11-20T12:53:30;1.03;;;1.03;;
9218;SDS011;4644;48.858;9.184;2022-11-20T12:56:05;1.20;;;1.00;;
9218;SDS011;4644;48.858;9.184;2022-11-20T12:58:44;1.97;;;1.20;;
9218;SDS011;4644;48.858;9.184;2022-11-20T13:01:22;0.97;;;0.97;;
9218;SDS011;4644;48.858;9.184;2022-11-20T13:04:16;2.90;;;1.03;;
9218;SDS011;4644;48.858;9.184;2022-11-20T13:07:03;4.53;;;1.20;;
9218;SDS011;4644;48.858;9.184;2022-11-20T13:09:34;1.07;;;0.97;;
9218;SDS011;4644;48.858;9.184;2022-11-20T13:12:08;1.13;;;1.03;;
9218;SDS011;4644;48.858;9.184;2022-11-20T13:14:42;1.70;;;1.03;;
9218;SDS011;4644;48.858;9.184;2022-11-20T13:17:13;2.57;;;1.10;;
9218;SDS011;4644;48.858;9.184;2022-11-20T13:19:52;3.40;;;1.10;;
9218;SDS011;4644;48.858;9.184;2022-11-20T13:22:25;1.10;;;1.00;;
9218;SDS011;4644;48.858;9.184;2022-11-20T13:24:53;1.30;;;1.20;;
9218;SDS011;4644;48.858;9.184;2022-11-20T13:27:21;1.53;;;0.90;;
9218;SDS011;4644;48.858;9.184;2022-11-20T13:30:11;3.90;;;1.13;;
9218;SDS011;4644;48.858;9.184;2022-11-20T13:32:48;1.80;;;0.90;;
9218;SDS011;4644;48.858;9.184;2022-11-20T13:35:24;2.43;;;1.20;;
9218;SDS011;4644;48.858;9.184;2022-11-20T13:38:02;1.77;;;0.93;;
9218;SDS011;4644;48.858;9.184;2022-11-20T13:40:31;1.90;;;0.77;;
9218;SDS011;4644;48.858;9.184;2022-11-20T13:43:04;1.50;;;0.90;;
9218;SDS011;4644;48.858;9.184;2022-11-20T13:45:37;1.20;;;1.00;;
9218;SDS011;4644;48.858;9.184;2022-11-20T13:48:15;1.63;;;0.90;;
9218;SDS011;4644;48.858;9.184;2022-11-20T13:50:49;1.23;;;1.03;;
9218;SDS011;4644;48.858;9.184;2022-11-20T13:56:19;2.23;;;1.10;;
9218;SDS011;4644;48.858;9.184;2022-11-20T13:58:53;2.20;;;1.10;;
9218;SDS011;4644;48.858;9.184;2022-11-20T14:01:29;2.60;;;1.30;;
9218;SDS011;4644;48.858;9.184;2022-11-20T14:03:57;1.30;;;1.00;;
9218;SDS011;4644;48.858;9.184;2022-11-20T14:06:26;1.10;;;1.00;;
9218;SDS011;4644;48.858;9.184;2022-11-20T14:08:59;2.13;;;0.80;;
9218;SDS011;4644;48.858;9.184;2022-11-20T14:11:26;2.23;;;1.00;;
9218;SDS011;4644;48.858;9.184;2022-11-20T14:13:58;1.00;;;0.90;;
9218;SDS011;4644;48.858;9.184;2022-11-20T14:16:28;1.97;;;1.00;;
9218;SDS011;4644;48.858;9.184;2022-11-20T14:19:22;1.67;;;0.90;;
9218;SDS011;4644;48.858;9.184;2022-11-20T14:21:52;1.70;;;0.93;;
9218;SDS011;4644;48.858;9.184;2022-11-20T14:24:22;4.37;;;1.77;;
9218;SDS011;4644;48.858;9.184;2022-11-20T14:26:50;3.10;;;2.30;;
9218;SDS011;4644;48.858;9.184;2022-11-20T14:29:18;1.40;;;1.30;;
9218;SDS011;4644;48.858;9.184;2022-11-20T14:31:50;1.63;;;1.03;;
9218;SDS011;4644;48.858;9.184;2022-11-20T14:34:21;1.70;;;1.47;;
9218;SDS011;4644;48.858;9.184;2022-11-20T14:36:52;1.63;;;1.27;;
9218;SDS011;4644;48.858;9.184;2022-11-20T14:39:26;1.37;;;1.20;;
9218;SDS011;4644;48.858;9.184;2022-11-20T14:41:58;4.03;;;1.90;;
9218;SDS011;4644;48.858;9.184;2022-11-20T14:44:26;1.80;;;1.23;;
9218;SDS011;4644;48.858;9.184;2022-11-20T14:46:58;2.57;;;1.67;;
9218;SDS011;4644;48.858;9.184;2022-11-20T14:49:29;2.13;;;1.60;;
9218;SDS011;4644;48.858;9.184;2022-11-20T14:51:59;2.97;;;1.77;;
9218;SDS011;4644;48.858;9.184;2022-11-20T14:54:28;3.77;;;1.87;;
9218;SDS011;4644;48.858;9.184;2022-11-20T14:56:57;3.83;;;1.70;;
9218;SDS011;4644;48.858;9.184;2022-11-20T14:59:25;3.07;;;1.93;;
9218;SDS011;4644;48.858;9.184;2022-11-20T15:01:55;4.97;;;1.90;;
9218;SDS011;4644;48.858;9.184;2022-11-20T15:04:25;4.83;;;2.67;;
9218;SDS011;4644;48.858;9.184;2022-11-20T15:06:54;4.87;;;3.10;;
9218;SDS011;4644;48.858;9.184;2022-11-20T15:09:23;11.50;;;5.70;;
9218;SDS011;4644;48.858;9.184;2022-11-20T15:11:54;4.07;;;2.27;;
9218;SDS011;4644;48.858;9.184;2022-11-20T15:14:23;3.33;;;1.97;;
9218;SDS011;4644;48.858;9.184;2022-11-20T15:16:52;4.57;;;2.60;;
9218;SDS011;4644;48.858;9.184;2022-11-20T15:19:20;3.43;;;2.40;;
9218;SDS011;4644;48.858;9.184;2022-11-20T15:21:49;2.67;;;2.10;;
9218;SDS011;4644;48.858;9.184;2022-11-20T15:24:17;2.47;;;1.80;;
9218;SDS011;4644;48.858;9.184;2022-11-20T15:26:45;3.70;;;1.70;;
9218;SDS011;4644;48.858;9.184;2022-11-20T15:29:15;2.20;;;1.70;;
9218;SDS011;4644;48.858;9.184;2022-11-20T15:31:46;2.00;;;1.67;;
9218;SDS011;4644;48.858;9.184;2022-11-20T15:34:16;4.33;;;2.80;;
9218;SDS011;4644;48.858;9.184;2022-11-20T15:36:44;4.53;;;2.70;;
9218;SDS011;4644;48.858;9.184;2022-11-20T15:39:12;3.83;;;2.07;;
9218;SDS011;4644;48.858;9.184;2022-11-20T15:41:39;3.47;;;2.00;;